Accueil
METAR-TAF:

METAR-TAF

Aéroports :

Aéroport de Pontoise - Cormeilles-en-Vexin

Pontoise, France

latitude: 49-05-48N, longitude: 002-02-27E, altitude: 99 m

Observation

Le bulletin a été fait il y a 28 minutes, à 09:00 UTC
Vent 8 kt de sud, variant entre sud-est et sud/sud-ouest
Température 20°C
Humidité 64%
Pression 1010 hPa
Visibilité 10 km ou plus
pas de nuages en-dessous de 1500 mètres et pas de cumulonimbus.

METAR: LFPT 150900Z AUTO 17008KT 140V210 CAVOK 20/13 Q1010

Heure: 11:28 (09:28 UTC)


TAF: absent

Observations et prévisions météorologiques de plus de 4000 aéroports (messages METAR et TAF).

Les stations disponibles sont représentées par des disques jaunes et rouges sur la carte.

Passer la souris dessus pour voir le nom de la station.

Cliquer dessus pour voir les observations et prévisions météorologiques.

Pour changer de carte: cliquez sur les boutons verts avec une croix noire pour zoomer, sur le bouton vert avec un tiret pour effectuer un zoom arrière, ou sur les flèches vertes pour les cartes adjacentes.


METAR-TAF: